Lakeside, Missouri
Current Conditions -  °F | °C
As of 1:53 PM on Thursday 29 Jan 2015 (Local Time) from KJLN Reporting Station
Overcast Overcast  
Wind Chill: 37°   Ceiling: 3600
Heat Index: 45°   Visibility: 10mi
Dew Point: 29°   Wind: 21mph
Humidity: 53%   Direction: 330°NNW
Pressure: 30.37"   Gusts: 29mph
Location:  37.1074°N, 94.5218°W
Report Text: KJLN 291953Z 33018G25KT 10SM OVC036 07/M02 A3037 RMK AO2 PK WND 34026/1936 SLP284 T00721017
Loading
Personal Weather Stations






























Interactive Weather Map New forecast layout! Learn more

10-Day Weather Forecast

Advertisements
Track Severe Weather on mobile